ADDS TAF Data INFO
IDs: Format: Raw Decoded Include METARs

Data at: 1025 UTC 21 Jan 2018

TAF for:KAUS (Austin/Bergstrom Int, TX, US) issued at 0907 UTC 21 Jan 2018
Text:KAUS 210907Z 2109/2212 17005KT 6SM BR OVC006
Forecast period:0900 to 1800 UTC 21 January 2018
Forecast type:FROM: standard forecast or significant change
Winds:from the S (170 degrees) at 6 MPH (5 knots; 2.6 m/s)
Visibility: 6 sm ( 10 km)
Ceiling:600 feet AGL
Clouds: overcast cloud deck at 600 feet AGL
Weather:BR (mist)
Text:FM211800 20012KT 5SM -RA BR OVC007
Forecast period:1800 UTC 21 January 2018 to 0000 UTC 22 January 2018
Forecast type:FROM: standard forecast or significant change
Winds:from the SSW (200 degrees) at 14 MPH (12 knots; 6.2 m/s)
Visibility: 5 sm ( 8 km)
Ceiling:700 feet AGL
Clouds: overcast cloud deck at 700 feet AGL
Weather:-RA BR (light rain, mist)
Text:FM220000 22008KT P6SM BKN050
Forecast period:0000 to 0700 UTC 22 January 2018
Forecast type:FROM: standard forecast or significant change
Winds:from the SW (220 degrees) at 9 MPH (8 knots; 4.1 m/s)
Visibility:6 or more sm (10+ km)
Ceiling:5000 feet AGL
Clouds: broken clouds at 5000 feet AGL
Text:FM220700 28007KT P6SM SKC
Forecast period:0700 to 1200 UTC 22 January 2018
Forecast type:FROM: standard forecast or significant change
Winds:from the W (280 degrees) at 8 MPH (7 knots; 3.6 m/s)
Visibility:6 or more sm (10+ km)
Ceiling:at least 12,000 feet AGL
Clouds:clear skies